Time;durP1;ratioP1;P1;durP2;ratioP2;P2;SDS_P1;SDS_P2;PMS_P1;PMS_P2;Temp;Humidity;BMP_temperature;BMP_pressure;BME280_temperature;BME280_humidity;BME280_pressure;Samples;Min_cycle;Max_cycle;Signal;HPM_P1;HPM_P2
2022/08/16 00:00:48;;;;;;;5.78;5.18;;;24.80;62.40;;;;;;5057335;28;20155;-62
2022/08/16 00:03:13;;;;;;;6.18;5.03;;;24.80;62.40;;;;;;5091183;28;20555;-62
2022/08/16 00:05:39;;;;;;;6.60;4.90;;;24.80;62.40;;;;;;5091800;28;20032;-62
2022/08/16 00:08:04;;;;;;;7.28;4.80;;;24.80;62.50;;;;;;5091695;28;20080;-62
2022/08/16 00:10:32;;;;;;;6.82;5.30;;;24.80;62.50;;;;;;5090995;28;20036;-62
2022/08/16 00:12:58;;;;;;;5.90;4.85;;;24.80;62.60;;;;;;5092041;28;20052;-62
2022/08/16 00:15:26;;;;;;;7.00;5.30;;;24.80;62.60;;;;;;5090080;28;20063;-62
2022/08/16 00:17:52;;;;;;;;;;;24.80;62.60;;;;;;5090310;28;20044;-62
2022/08/16 00:20:17;;;;;;;6.32;4.68;;;24.80;62.50;;;;;;5090440;28;19931;-62
2022/08/16 00:22:43;;;;;;;7.20;4.93;;;24.80;62.60;;;;;;5091711;28;20047;-62
2022/08/16 00:25:11;;;;;;;5.80;4.85;;;24.80;62.70;;;;;;5091085;28;20576;-61
2022/08/16 00:27:36;;;;;;;5.38;4.85;;;24.80;62.70;;;;;;5094752;28;20059;-62
2022/08/16 00:30:04;;;;;;;6.38;4.95;;;24.80;62.80;;;;;;5094700;28;20123;-62
2022/08/16 00:32:30;;;;;;;7.47;5.47;;;24.80;63.40;;;;;;5095490;28;20087;-62
2022/08/16 00:34:55;;;;;;;7.82;5.38;;;24.80;62.80;;;;;;5095645;28;20480;-62
2022/08/16 00:37:22;;;;;;;7.38;5.20;;;24.80;62.80;;;;;;5094785;28;20044;-62
2022/08/16 00:39:48;;;;;;;6.00;4.72;;;24.80;62.80;;;;;;5095304;28;20495;-62
2022/08/16 00:42:14;;;;;;;6.60;4.97;;;24.80;62.90;;;;;;5094183;28;20054;-61
2022/08/16 00:44:39;;;;;;;6.70;5.25;;;24.80;62.90;;;;;;5094743;28;20040;-61
2022/08/16 00:47:07;;;;;;;7.72;5.93;;;24.80;63.00;;;;;;5110932;28;20048;-62
2022/08/16 00:49:33;;;;;;;7.43;5.38;;;24.80;63.00;;;;;;5093493;28;20083;-62
2022/08/16 00:51:59;;;;;;;7.10;5.05;;;24.80;63.00;;;;;;5094482;28;20044;-62
2022/08/16 00:54:26;;;;;;;6.95;5.07;;;24.80;63.00;;;;;;5094740;28;20101;-62
2022/08/16 00:56:51;;;;;;;9.02;5.45;;;24.80;63.00;;;;;;5095130;28;20044;-61
2022/08/16 00:59:19;;;;;;;6.38;5.38;;;24.70;63.10;;;;;;5091995;28;20141;-62
2022/08/16 01:01:45;;;;;;;6.32;5.30;;;24.80;63.20;;;;;;5077282;28;20063;-62
2022/08/16 01:04:11;;;;;;;6.57;5.60;;;24.80;63.20;;;;;;5095009;28;20480;-62
2022/08/16 01:06:37;;;;;;;8.23;6.13;;;24.80;63.20;;;;;;5093537;28;20449;-61
2022/08/16 01:09:05;;;;;;;6.75;5.53;;;24.80;63.20;;;;;;5095048;28;20127;-62
2022/08/16 01:11:30;;;;;;;7.20;5.57;;;24.80;63.30;;;;;;5093487;28;20085;-62
2022/08/16 01:14:03;;;;;;;8.60;6.25;;;24.70;63.20;;;;;;5093931;28;20445;-61
2022/08/16 01:16:29;;;;;;;6.53;5.68;;;24.80;63.30;;;;;;5076376;28;20055;-63
2022/08/16 01:19:03;;;;;;;6.38;5.50;;;24.70;63.30;;;;;;5094890;28;20036;-63
2022/08/16 01:21:31;;;;;;;7.55;5.38;;;24.80;63.40;;;;;;5092440;28;20044;-63
2022/08/16 01:24:12;;;;;;;7.65;5.68;;;24.80;63.50;;;;;;5094577;28;20039;-63
2022/08/16 01:26:37;;;;;;;6.75;5.20;;;24.70;63.40;;;;;;5092748;28;20048;-63
2022/08/16 01:29:08;;;;;;;7.70;5.13;;;24.70;63.40;;;;;;5092866;28;20044;-63
2022/08/16 01:31:34;;;;;;;6.70;5.30;;;24.70;63.40;;;;;;5093305;28;20135;-63
2022/08/16 01:34:00;;;;;;;6.38;5.57;;;24.70;63.40;;;;;;5092455;28;20083;-63
2022/08/16 01:36:25;;;;;;;8.35;6.20;;;24.70;63.40;;;;;;5092488;28;20058;-63
2022/08/16 01:38:51;;;;;;;7.75;5.53;;;24.70;63.50;;;;;;5110300;28;20039;-63
2022/08/16 01:41:21;;;;;;;7.22;5.97;;;24.70;63.50;;;;;;5093292;28;20040;-63
2022/08/16 01:43:47;;;;;;;7.10;5.75;;;24.70;63.60;;;;;;5094166;28;20056;-63
2022/08/16 01:46:28;;;;;;;7.75;5.72;;;24.70;63.50;;;;;;5094013;28;20052;-63
2022/08/16 01:49:21;;;;;;;7.15;5.97;;;24.70;63.60;;;;;;5093452;28;20039;-63
2022/08/16 01:51:50;;;;;;;7.50;6.10;;;24.70;63.60;;;;;;5088171;28;20052;-62
2022/08/16 01:54:16;;;;;;;7.10;5.75;;;24.70;63.60;;;;;;5092593;28;20048;-63
2022/08/16 01:56:41;;;;;;;6.97;5.80;;;24.70;64.30;;;;;;5093178;28;20050;-63
2022/08/16 01:59:09;;;;;;;6.90;5.40;;;24.70;63.70;;;;;;5093592;28;20074;-63
2022/08/16 02:01:35;;;;;;;8.82;6.32;;;24.70;63.70;;;;;;5092284;28;20462;-63
2022/08/16 02:04:01;;;;;;;6.60;5.50;;;24.70;63.70;;;;;;5091371;28;20110;-63
2022/08/16 02:06:27;;;;;;;8.50;5.63;;;24.70;63.70;;;;;;5093152;28;20127;-63
2022/08/16 02:08:53;;;;;;;7.00;5.72;;;24.70;63.70;;;;;;5091649;28;20051;-63
2022/08/16 02:11:20;;;;;;;6.75;6.05;;;24.70;63.70;;;;;;5093507;28;20040;-63
2022/08/16 02:13:45;;;;;;;7.95;6.15;;;24.70;63.70;;;;;;5092948;28;20039;-63
2022/08/16 02:16:11;;;;;;;8.93;5.80;;;24.70;63.80;;;;;;5092592;28;20032;-63
2022/08/16 02:18:37;;;;;;;9.40;6.03;;;24.70;63.80;;;;;;5092885;28;20039;-63
2022/08/16 02:21:03;;;;;;;7.50;5.80;;;24.70;63.80;;;;;;5093413;28;20540;-63
2022/08/16 02:23:29;;;;;;;8.88;6.22;;;24.70;63.80;;;;;;5092202;28;20511;-63
2022/08/16 02:25:54;;;;;;;6.82;5.90;;;24.70;63.90;;;;;;5092679;28;20048;-63
2022/08/16 02:28:20;;;;;;;7.82;6.20;;;24.70;63.80;;;;;;5092828;28;20511;-63
2022/08/16 02:30:46;;;;;;;7.20;6.03;;;24.70;63.80;;;;;;5091566;28;20048;-63
2022/08/16 02:33:12;;;;;;;8.75;6.65;;;24.70;63.90;;;;;;5092291;28;20119;-63
2022/08/16 02:35:38;;;;;;;6.90;6.07;;;24.70;63.90;;;;;;5092719;28;20044;-62
2022/08/16 02:38:03;;;;;;;7.45;6.40;;;24.70;63.90;;;;;;5091142;28;20040;-62
2022/08/16 02:40:29;;;;;;;6.88;6.10;;;24.60;63.90;;;;;;5093149;28;20044;-62
2022/08/16 02:42:54;;;;;;;7.45;5.93;;;24.70;64.00;;;;;;5093038;28;20540;-62
2022/08/16 02:45:22;;;;;;;8.38;6.50;;;24.70;64.00;;;;;;5091610;28;20539;-63
2022/08/16 02:47:48;;;;;;;7.72;6.28;;;24.70;64.00;;;;;;5091531;28;20051;-63
2022/08/16 02:50:15;;;;;;;8.57;6.57;;;24.70;64.10;;;;;;5092018;28;20044;-63
2022/08/16 02:52:40;;;;;;;8.23;6.35;;;24.70;64.10;;;;;;5092556;28;20036;-62
2022/08/16 02:55:06;;;;;;;7.43;6.20;;;24.60;64.00;;;;;;5093127;28;20391;-63
2022/08/16 02:57:32;;;;;;;8.05;5.80;;;24.60;64.00;;;;;;5092541;28;20384;-62
2022/08/16 02:59:58;;;;;;;8.85;6.45;;;24.60;64.10;;;;;;5092049;28;20044;-63
2022/08/16 03:02:24;;;;;;;6.85;6.15;;;24.60;64.10;;;;;;5092688;28;20098;-62
2022/08/16 03:04:50;;;;;;;6.93;6.22;;;24.60;64.10;;;;;;5092155;28;20510;-63
2022/08/16 03:07:15;;;;;;;9.55;6.25;;;24.60;64.10;;;;;;5092202;28;20594;-63
2022/08/16 03:09:41;;;;;;;6.15;5.47;;;24.60;64.10;;;;;;5092827;28;20036;-62
2022/08/16 03:12:06;;;;;;;8.20;6.35;;;24.60;64.10;;;;;;5091857;28;20036;-62
2022/08/16 03:14:32;;;;;;;8.13;6.35;;;24.60;64.10;;;;;;5124871;27;20054;-63
2022/08/16 03:16:58;;;;;;;7.03;6.20;;;24.60;64.10;;;;;;5091082;28;20043;-62
2022/08/16 03:19:24;;;;;;;7.18;6.10;;;24.60;64.10;;;;;;5091535;28;20062;-62
2022/08/16 03:21:49;;;;;;;7.03;6.32;;;24.60;64.10;;;;;;5092834;28;20044;-62
2022/08/16 03:24:15;;;;;;;7.78;6.50;;;24.60;64.10;;;;;;5092286;28;20067;-63
2022/08/16 03:26:40;;;;;;;9.68;6.70;;;24.60;64.10;;;;;;5124500;27;20138;-63
2022/08/16 03:29:06;;;;;;;7.22;5.97;;;24.60;64.10;;;;;;5090677;28;20373;-63
2022/08/16 03:31:32;;;;;;;7.15;6.28;;;24.60;64.20;;;;;;5092045;28;20518;-63
2022/08/16 03:33:57;;;;;;;9.05;6.40;;;24.60;64.20;;;;;;5091288;28;20157;-62
2022/08/16 03:36:23;;;;;;;8.65;6.50;;;24.50;64.20;;;;;;5092269;28;20044;-63
2022/08/16 03:38:48;;;;;;;7.85;6.07;;;24.60;64.20;;;;;;5092390;28;20040;-63
2022/08/16 03:41:14;;;;;;;8.60;6.72;;;24.60;64.20;;;;;;5091083;28;20448;-62
2022/08/16 03:43:39;;;;;;;7.25;5.80;;;24.60;64.20;;;;;;5092212;28;20050;-63
2022/08/16 03:46:05;;;;;;;8.40;6.32;;;24.60;64.20;;;;;;5091881;28;20052;-62
2022/08/16 03:48:34;;;;;;;8.48;6.45;;;24.60;64.30;;;;;;5090893;28;20044;-63
2022/08/16 03:51:00;;;;;;;7.97;6.70;;;24.60;64.30;;;;;;5092369;28;20040;-62
2022/08/16 03:53:26;;;;;;;8.02;6.10;;;24.50;64.20;;;;;;5092037;28;20044;-62
2022/08/16 03:55:52;;;;;;;9.65;6.03;;;24.60;64.30;;;;;;5090392;28;20072;-62
2022/08/16 03:58:17;;;;;;;7.28;5.97;;;24.60;64.30;;;;;;5091655;28;20082;-63
2022/08/16 04:00:43;;;;;;;7.82;6.13;;;24.50;64.20;;;;;;5092572;28;20035;-62
2022/08/16 04:03:09;;;;;;;8.32;6.28;;;24.60;64.30;;;;;;5095058;28;20043;-63
2022/08/16 04:05:39;;;;;;;9.95;7.05;;;24.60;64.30;;;;;;5095262;28;20094;-63
2022/08/16 04:08:05;;;;;;;8.93;6.93;;;24.60;64.30;;;;;;5095205;28;20047;-62
2022/08/16 04:10:30;;;;;;;8.63;7.00;;;24.50;64.30;;;;;;5128248;27;20089;-62
2022/08/16 04:12:56;;;;;;;8.18;6.75;;;24.50;64.20;;;;;;5094964;28;20055;-63
2022/08/16 04:15:22;;;;;;;10.68;7.13;;;24.50;64.20;;;;;;5094847;28;20044;-62
2022/08/16 04:17:48;;;;;;;8.35;6.20;;;24.50;64.20;;;;;;5095609;28;20050;-62
2022/08/16 04:20:13;;;;;;;8.27;6.63;;;24.50;64.20;;;;;;5095662;28;20069;-63
2022/08/16 04:22:39;;;;;;;7.38;6.35;;;24.50;64.20;;;;;;5094577;28;20040;-63
2022/08/16 04:25:05;;;;;;;9.85;6.32;;;24.50;64.20;;;;;;5095861;28;20040;-62
2022/08/16 04:27:31;;;;;;;7.40;6.63;;;24.50;64.30;;;;;;5095067;28;20066;-63
2022/08/16 04:29:57;;;;;;;9.05;6.68;;;24.50;64.20;;;;;;5094731;28;20411;-63
2022/08/16 04:32:22;;;;;;;7.35;6.43;;;24.50;64.20;;;;;;5095207;28;20403;-63
2022/08/16 04:34:48;;;;;;;8.25;6.63;;;24.50;64.20;;;;;;5095779;28;20468;-62
2022/08/16 04:37:14;;;;;;;8.85;7.18;;;24.50;64.20;;;;;;5094388;28;20399;-63
2022/08/16 04:39:39;;;;;;;9.00;7.00;;;24.50;64.20;;;;;;5095427;28;20032;-62
2022/08/16 04:42:05;;;;;;;7.93;6.75;;;24.50;64.20;;;;;;5095414;28;20051;-62
2022/08/16 04:44:31;;;;;;;8.68;6.47;;;24.50;64.20;;;;;;5093567;28;20063;-62
2022/08/16 04:46:57;;;;;;;7.25;6.45;;;24.50;64.20;;;;;;5095439;28;20422;-62
2022/08/16 04:49:23;;;;;;;9.43;6.32;;;24.50;64.20;;;;;;5094869;28;20044;-63
2022/08/16 04:51:48;;;;;;;7.50;6.70;;;24.50;64.20;;;;;;5094486;28;20123;-62
2022/08/16 04:54:14;;;;;;;9.30;7.03;;;24.50;64.20;;;;;;5094831;28;20032;-62
2022/08/16 04:56:39;;;;;;;8.75;7.35;;;24.50;64.30;;;;;;5094902;28;20044;-62
2022/08/16 04:59:06;;;;;;;7.10;6.38;;;24.50;64.20;;;;;;5094214;28;20044;-62
2022/08/16 05:01:32;;;;;;;7.63;6.32;;;24.50;64.20;;;;;;5094738;28;20039;-62
2022/08/16 05:03:57;;;;;;;8.48;6.22;;;24.50;64.90;;;;;;5094857;28;20040;-62
2022/08/16 05:06:23;;;;;;;7.90;6.35;;;24.50;64.30;;;;;;5093542;28;20123;-62
2022/08/16 05:08:48;;;;;;;7.70;6.80;;;24.50;64.20;;;;;;5094668;28;20139;-63
2022/08/16 05:11:14;;;;;;;7.93;6.38;;;24.50;64.20;;;;;;5126954;27;20074;-62
2022/08/16 05:13:42;;;;;;;8.48;7.00;;;24.50;64.30;;;;;;5093926;28;20040;-62
2022/08/16 05:16:09;;;;;;;9.07;7.30;;;24.50;64.30;;;;;;5094792;28;20051;-62
2022/08/16 05:18:35;;;;;;;8.77;6.68;;;24.50;64.30;;;;;;5093894;28;20131;-62
2022/08/16 05:21:01;;;;;;;9.05;7.30;;;24.50;64.20;;;;;;5094825;28;20150;-63
2022/08/16 05:23:27;;;;;;;10.13;7.28;;;24.50;64.30;;;;;;5094419;28;20127;-62
2022/08/16 05:25:52;;;;;;;8.27;7.10;;;24.50;64.20;;;;;;5093855;28;20127;-62
2022/08/16 05:28:18;;;;;;;10.40;7.35;;;24.50;64.30;;;;;;5093976;28;20063;-62
2022/08/16 05:30:44;;;;;;;10.23;7.38;;;24.50;64.20;;;;;;5094241;28;20047;-63
2022/08/16 05:33:10;;;;;;;8.52;6.97;;;24.50;64.20;;;;;;5093641;28;20044;-62
2022/08/16 05:35:35;;;;;;;9.50;7.28;;;24.50;64.20;;;;;;5126734;27;20128;-63
2022/08/16 05:38:01;;;;;;;9.38;7.32;;;24.50;64.20;;;;;;5094227;28;20048;-63
2022/08/16 05:40:26;;;;;;;7.40;6.22;;;24.50;64.10;;;;;;5093382;28;20044;-63
2022/08/16 05:42:52;;;;;;;9.93;7.30;;;24.50;64.10;;;;;;5094461;28;20040;-62
2022/08/16 05:45:17;;;;;;;9.20;6.65;;;24.50;64.10;;;;;;5093868;28;20380;-62
2022/08/16 05:47:43;;;;;;;9.25;7.05;;;24.50;64.10;;;;;;5093266;28;20040;-63
2022/08/16 05:50:09;;;;;;;10.65;7.40;;;24.50;64.10;;;;;;5094249;28;20143;-62
2022/08/16 05:52:34;;;;;;;17.60;13.85;;;24.50;64.20;;;;;;5093914;28;20123;-62
2022/08/16 05:55:00;;;;;;;22.05;14.70;;;24.50;64.10;;;;;;5093308;28;20036;-61
2022/08/16 05:57:25;;;;;;;19.48;15.45;;;24.40;64.20;;;;;;5093957;28;20036;-61
2022/08/16 05:59:51;;;;;;;20.67;14.45;;;24.30;64.40;;;;;;5093579;28;20040;-64
2022/08/16 06:02:17;;;;;;;19.10;13.60;;;24.20;64.50;;;;;;5092987;28;20083;-63
2022/08/16 06:04:43;;;;;;;17.95;13.57;;;24.20;64.60;;;;;;5092576;28;20036;-63
2022/08/16 06:07:09;;;;;;;20.95;13.85;;;24.10;64.80;;;;;;5093842;28;20047;-63
2022/08/16 06:09:34;;;;;;;18.70;13.38;;;24.00;64.90;;;;;;5092900;28;20055;-63
2022/08/16 06:12:00;;;;;;;21.48;13.18;;;24.00;65.00;;;;;;5093741;28;20044;-63
2022/08/16 06:14:27;;;;;;;18.88;13.15;;;24.00;65.00;;;;;;5093406;28;20044;-63
2022/08/16 06:16:53;;;;;;;21.02;13.90;;;24.00;64.90;;;;;;5091835;28;20105;-62
2022/08/16 06:19:18;;;;;;;17.95;12.88;;;24.00;64.90;;;;;;5093161;28;20432;-63
2022/08/16 06:21:45;;;;;;;20.10;13.88;;;24.00;64.90;;;;;;5092079;28;20036;-61
2022/08/16 06:24:10;;;;;;;19.02;13.38;;;24.00;65.00;;;;;;5092663;28;20040;-61
2022/08/16 06:26:36;;;;;;;18.60;12.88;;;24.00;64.90;;;;;;5092928;28;20036;-62
2022/08/16 06:29:02;;;;;;;20.98;13.02;;;24.00;65.00;;;;;;5092030;28;20133;-62
2022/08/16 06:31:27;;;;;;;15.13;12.13;;;23.90;64.90;;;;;;5092908;28;20048;-63
2022/08/16 06:33:53;;;;;;;16.10;11.63;;;23.90;64.70;;;;;;5093539;28;20036;-61
2022/08/16 06:36:18;;;;;;;19.23;11.77;;;23.90;64.70;;;;;;5092155;28;20044;-62
2022/08/16 06:38:44;;;;;;;17.48;10.95;;;23.90;64.60;;;;;;5093310;28;20043;-62
2022/08/16 06:41:10;;;;;;;14.00;10.95;;;23.90;64.60;;;;;;5092493;28;20458;-62
2022/08/16 06:43:35;;;;;;;16.15;10.73;;;23.90;64.50;;;;;;5090676;28;20051;-63
2022/08/16 06:46:02;;;;;;;15.48;11.35;;;23.90;64.30;;;;;;5093034;28;20123;-62
2022/08/16 06:48:27;;;;;;;12.77;9.45;;;23.90;64.30;;;;;;5092553;28;20051;-60
2022/08/16 06:50:53;;;;;;;13.75;9.23;;;23.90;64.30;;;;;;5092608;28;20044;-63
2022/08/16 06:53:19;;;;;;;15.45;9.93;;;23.90;64.30;;;;;;5092939;28;20044;-63
2022/08/16 06:55:44;;;;;;;13.82;9.70;;;23.90;64.20;;;;;;5092990;28;20467;-62
2022/08/16 06:58:10;;;;;;;17.55;12.13;;;23.90;64.20;;;;;;5092107;28;20036;-62
2022/08/16 07:00:37;;;;;;;13.23;10.73;;;23.90;64.10;;;;;;5091418;28;20506;-63
2022/08/16 07:03:03;;;;;;;14.15;11.75;;;23.90;64.20;;;;;;5093000;28;20123;-62
2022/08/16 07:05:30;;;;;;;15.43;11.93;;;23.80;64.90;;;;;;5092119;28;20130;-62
2022/08/16 07:07:55;;;;;;;19.70;11.13;;;23.80;64.30;;;;;;5092755;28;20082;-63
2022/08/16 07:10:21;;;;;;;14.23;10.23;;;23.70;64.30;;;;;;5092256;28;20075;-62
2022/08/16 07:12:49;;;;;;;13.73;10.13;;;23.80;64.40;;;;;;5091746;28;20077;-62
2022/08/16 07:15:18;;;;;;;16.42;12.25;;;23.80;64.60;;;;;;5092286;28;20538;-62
2022/08/16 07:17:44;;;;;;;16.20;11.02;;;23.80;64.50;;;;;;5125215;27;20040;-63
2022/08/16 07:20:11;;;;;;;17.27;10.60;;;23.80;64.50;;;;;;5091181;28;20046;-62
2022/08/16 07:22:38;;;;;;;16.20;11.45;;;23.80;64.50;;;;;;5091741;28;20047;-62
2022/08/16 07:25:05;;;;;;;13.85;10.98;;;23.90;64.50;;;;;;5115400;27;20040;-62
2022/08/16 07:27:30;;;;;;;18.67;12.30;;;23.90;64.50;;;;;;5091465;28;20052;-61
2022/08/16 07:29:56;;;;;;;17.75;11.88;;;23.90;65.10;;;;;;5092164;28;20093;-61
2022/08/16 07:32:22;;;;;;;15.60;10.95;;;23.90;64.40;;;;;;5090851;28;20098;-62
2022/08/16 07:34:47;;;;;;;15.00;10.27;;;23.90;64.40;;;;;;5092131;28;20514;-61
2022/08/16 07:37:16;;;;;;;15.85;11.05;;;23.90;64.50;;;;;;5091334;28;20152;-62
2022/08/16 07:39:42;;;;;;;14.73;10.82;;;24.00;64.50;;;;;;5091747;28;20051;-62
2022/08/16 07:42:07;;;;;;;15.40;10.15;;;24.00;64.40;;;;;;5092163;28;20040;-61
2022/08/16 07:44:33;;;;;;;16.65;9.75;;;24.00;64.40;;;;;;5092024;28;20052;-62
2022/08/16 07:46:58;;;;;;;18.67;14.38;;;24.00;64.40;;;;;;5091442;28;20044;-63
2022/08/16 07:49:24;;;;;;;18.52;13.15;;;24.00;64.30;;;;;;5091824;28;20070;-62
2022/08/16 07:51:49;;;;;;;19.00;11.95;;;24.00;64.40;;;;;;5092323;28;20036;-63
2022/08/16 07:54:15;;;;;;;18.48;11.93;;;24.00;64.50;;;;;;5090850;28;20036;-63
2022/08/16 07:56:41;;;;;;;18.13;13.93;;;24.00;64.50;;;;;;5092320;28;20040;-63
2022/08/16 07:59:06;;;;;;;18.30;12.75;;;24.00;64.40;;;;;;5092331;28;20428;-63
2022/08/16 08:01:32;;;;;;;16.70;12.43;;;24.00;64.30;;;;;;5091037;28;20052;-62
2022/08/16 08:03:58;;;;;;;13.65;11.02;;;24.00;64.30;;;;;;5125537;28;20040;-62
2022/08/16 08:06:27;;;;;;;21.08;13.07;;;24.00;64.20;;;;;;5090737;28;20047;-63
2022/08/16 08:08:53;;;;;;;19.50;13.60;;;24.00;64.20;;;;;;5091790;28;20072;-62
2022/08/16 08:11:20;;;;;;;16.67;12.95;;;24.10;64.20;;;;;;5091473;28;20082;-62
2022/08/16 08:13:45;;;;;;;16.50;12.07;;;24.00;64.00;;;;;;5092244;28;20123;-63
2022/08/16 08:16:11;;;;;;;17.05;12.68;;;24.10;64.00;;;;;;5091311;28;20181;-63
2022/08/16 08:18:36;;;;;;;21.10;14.43;;;24.10;64.00;;;;;;5091786;28;20068;-61
2022/08/16 08:21:02;;;;;;;22.02;12.10;;;24.10;64.00;;;;;;5088939;28;20040;-63
2022/08/16 08:23:28;;;;;;;19.20;12.25;;;24.10;64.10;;;;;;5090021;28;20036;-62
2022/08/16 08:25:53;;;;;;;17.45;12.00;;;24.10;64.20;;;;;;5090905;28;20044;-62
2022/08/16 08:28:19;;;;;;;16.40;10.55;;;24.10;64.20;;;;;;5089680;28;20138;-63
2022/08/16 08:30:45;;;;;;;17.88;11.23;;;24.20;64.30;;;;;;5090360;28;20044;-62
2022/08/16 08:33:11;;;;;;;17.27;11.95;;;24.20;64.30;;;;;;5091063;28;20040;-63
2022/08/16 08:35:37;;;;;;;19.52;13.63;;;24.20;64.00;;;;;;5090121;28;20067;-62
2022/08/16 08:38:03;;;;;;;16.30;12.43;;;24.20;63.90;;;;;;5091035;28;20118;-63
2022/08/16 08:40:29;;;;;;;18.85;13.55;;;24.30;64.10;;;;;;5091168;28;20111;-63
2022/08/16 08:42:55;;;;;;;19.80;12.85;;;24.30;63.90;;;;;;5090563;28;20472;-63
2022/08/16 08:45:21;;;;;;;17.65;13.18;;;24.30;63.80;;;;;;5090095;28;20548;-63
2022/08/16 08:47:47;;;;;;;19.27;13.80;;;24.30;63.90;;;;;;5092926;28;20059;-64
2022/08/16 08:50:13;;;;;;;20.02;13.55;;;24.30;63.80;;;;;;5094529;28;20039;-63
2022/08/16 08:52:39;;;;;;;20.98;14.45;;;24.30;63.90;;;;;;5094959;28;20097;-63
2022/08/16 08:55:06;;;;;;;16.42;12.05;;;24.40;63.90;;;;;;5095095;28;20051;-64
2022/08/16 08:57:31;;;;;;;17.35;13.32;;;24.40;64.00;;;;;;5093390;28;20071;-64
2022/08/16 08:59:57;;;;;;;18.70;13.27;;;24.40;63.90;;;;;;5095005;28;20169;-64
2022/08/16 09:02:23;;;;;;;16.83;13.32;;;24.40;63.80;;;;;;5094255;28;20454;-64
2022/08/16 09:04:48;;;;;;;16.88;13.85;;;24.40;63.50;;;;;;5094064;28;20048;-64
2022/08/16 09:07:14;;;;;;;16.35;13.02;;;24.40;63.40;;;;;;5093363;28;20427;-64
2022/08/16 09:09:40;;;;;;;22.67;11.75;;;24.50;63.30;;;;;;5094885;28;20129;-64
2022/08/16 09:12:07;;;;;;;16.55;12.52;;;24.50;63.40;;;;;;5094352;28;20036;-64
2022/08/16 09:14:33;;;;;;;15.95;12.15;;;24.50;63.30;;;;;;5094932;28;20091;-64
2022/08/16 09:16:59;;;;;;;17.45;12.38;;;24.50;63.20;;;;;;5094620;28;20507;-65
2022/08/16 09:19:24;;;;;;;17.80;11.32;;;24.50;63.10;;;;;;5092734;28;20036;-65
2022/08/16 09:21:50;;;;;;;16.58;10.90;;;24.50;63.30;;;;;;5094560;28;20065;-65
2022/08/16 09:24:16;;;;;;;14.77;10.70;;;24.60;64.00;;;;;;5093954;28;20051;-64
2022/08/16 09:26:42;;;;;;;11.95;9.68;;;24.60;63.40;;;;;;5092600;28;20530;-64
2022/08/16 09:29:07;;;;;;;17.63;9.77;;;24.60;63.50;;;;;;5090666;28;20084;-64
2022/08/16 09:31:33;;;;;;;12.85;8.55;;;24.70;63.50;;;;;;5093165;28;20048;-63
2022/08/16 09:34:01;;;;;;;12.27;8.48;;;24.70;63.50;;;;;;5093375;28;20632;-64
2022/08/16 09:36:28;;;;;;;11.48;8.43;;;24.70;63.50;;;;;;5093125;28;20051;-63
2022/08/16 09:38:53;;;;;;;10.88;8.43;;;24.70;63.50;;;;;;5094186;28;20050;-63
2022/08/16 09:41:19;;;;;;;12.40;9.05;;;24.70;63.60;;;;;;5092529;28;20032;-63
2022/08/16 09:43:44;;;;;;;16.88;9.90;;;24.70;63.80;;;;;;5094444;28;20105;-63
2022/08/16 09:46:10;;;;;;;19.45;11.13;;;24.80;64.10;;;;;;5092555;28;20043;-63
2022/08/16 09:48:40;;;;;;;13.82;10.70;;;24.80;64.50;;;;;;5093409;28;20036;-64
2022/08/16 09:51:08;;;;;;;14.68;10.30;;;24.80;64.70;;;;;;5091754;28;20040;-66
2022/08/16 09:53:34;;;;;;;13.88;11.10;;;24.80;64.60;;;;;;5126391;27;20399;-64
2022/08/16 09:56:00;;;;;;;16.00;10.98;;;24.80;64.70;;;;;;5094096;28;20505;-64
2022/08/16 09:58:26;;;;;;;16.15;11.63;;;24.80;64.70;;;;;;5093900;28;20049;-63
2022/08/16 10:00:52;;;;;;;16.27;11.32;;;24.80;64.60;;;;;;5091345;28;20040;-63
2022/08/16 10:03:18;;;;;;;14.90;11.30;;;24.90;64.60;;;;;;5080555;28;20040;-64
2022/08/16 10:05:43;;;;;;;16.20;11.00;;;24.90;64.60;;;;;;5093265;28;20529;-64
2022/08/16 10:08:09;;;;;;;12.68;11.27;;;24.90;64.70;;;;;;5092860;28;20044;-64
2022/08/16 10:10:35;;;;;;;13.52;10.73;;;24.90;64.80;;;;;;5093235;28;20043;-63
2022/08/16 10:13:13;;;;;;;15.43;11.63;;;24.90;64.80;;;;;;5092247;28;20499;-62
2022/08/16 10:15:46;;;;;;;16.02;11.43;;;24.90;64.70;;;;;;5090466;28;20043;-63
2022/08/16 10:18:12;;;;;;;15.43;10.68;;;24.90;64.80;;;;;;5092890;28;20044;-62
2022/08/16 10:20:41;;;;;;;13.35;11.40;;;25.00;64.80;;;;;;5092899;28;20103;-62
2022/08/16 10:23:12;;;;;;;14.13;10.98;;;25.00;64.90;;;;;;5092114;28;20402;-63
2022/08/16 10:25:40;;;;;;;15.80;11.13;;;24.90;64.80;;;;;;5090898;28;20028;-62
2022/08/16 10:28:06;;;;;;;13.38;10.35;;;25.00;64.90;;;;;;5089969;28;20044;-63
2022/08/16 10:30:32;;;;;;;14.57;11.23;;;25.00;64.80;;;;;;5092633;28;20097;-64
2022/08/16 10:32:58;;;;;;;14.90;11.15;;;25.00;64.70;;;;;;5093029;28;20056;-64
2022/08/16 10:35:23;;;;;;;14.50;11.02;;;25.00;64.80;;;;;;5089572;28;20441;-64
2022/08/16 10:37:49;;;;;;;14.80;10.82;;;25.00;64.80;;;;;;5087654;28;20131;-64
2022/08/16 10:40:15;;;;;;;15.52;11.77;;;25.00;64.80;;;;;;5072483;28;20036;-64
2022/08/16 10:42:41;;;;;;;11.68;10.50;;;25.10;65.00;;;;;;5072067;28;20047;-64
2022/08/16 10:45:07;;;;;;;11.80;10.10;;;25.10;65.00;;;;;;5072653;28;20040;-64
2022/08/16 10:47:33;;;;;;;13.52;10.77;;;25.10;64.90;;;;;;5072643;28;20106;-64
2022/08/16 10:49:59;;;;;;;14.57;10.52;;;25.10;64.80;;;;;;5072308;28;20056;-65
2022/08/16 10:52:25;;;;;;;13.63;10.57;;;25.10;64.80;;;;;;5072878;28;20045;-68
2022/08/16 10:54:50;;;;;;;14.57;10.80;;;25.10;64.70;;;;;;5072835;28;20041;-64
2022/08/16 10:57:16;;;;;;;13.48;10.40;;;25.10;64.70;;;;;;5070285;28;20051;-63
2022/08/16 10:59:41;;;;;;;13.48;10.80;;;25.10;64.50;;;;;;5087214;28;20035;-63
2022/08/16 11:02:08;;;;;;;14.90;10.80;;;25.20;64.60;;;;;;5092765;28;20050;-63
2022/08/16 11:04:33;;;;;;;13.45;10.93;;;25.20;64.70;;;;;;5091627;28;20060;-62
2022/08/16 11:06:59;;;;;;;14.02;9.95;;;25.20;64.60;;;;;;5092504;28;20141;-64
2022/08/16 11:09:25;;;;;;;13.43;9.93;;;25.20;64.70;;;;;;5091424;28;20036;-64
2022/08/16 11:11:50;;;;;;;12.93;10.40;;;25.20;64.70;;;;;;5091324;28;20064;-63
2022/08/16 11:14:17;;;;;;;13.27;10.32;;;25.20;64.60;;;;;;5091900;28;20040;-64
2022/08/16 11:16:43;;;;;;;14.30;10.15;;;25.20;64.60;;;;;;5092189;28;20040;-64
2022/08/16 11:19:08;;;;;;;10.98;9.88;;;25.20;64.60;;;;;;5089860;28;20046;-63
2022/08/16 11:21:35;;;;;;;14.73;10.15;;;25.20;64.50;;;;;;5090734;28;20475;-64
2022/08/16 11:24:01;;;;;;;11.43;9.80;;;25.20;64.60;;;;;;5092185;28;20086;-64
2022/08/16 11:26:28;;;;;;;10.88;9.45;;;25.20;64.60;;;;;;5089883;28;20484;-63
2022/08/16 11:28:56;;;;;;;11.38;8.80;;;25.20;64.60;;;;;;5091556;28;20129;-64
2022/08/16 11:31:23;;;;;;;11.23;9.30;;;25.20;64.50;;;;;;5090966;28;20480;-63
2022/08/16 11:33:48;;;;;;;11.13;9.88;;;25.20;64.50;;;;;;5092372;28;20040;-63
2022/08/16 11:36:14;;;;;;;11.63;9.25;;;25.30;64.50;;;;;;5091815;28;20040;-64
2022/08/16 11:38:40;;;;;;;12.20;8.70;;;25.20;64.40;;;;;;5090245;28;20097;-64
2022/08/16 11:41:05;;;;;;;10.32;8.98;;;25.30;64.40;;;;;;5092255;28;20495;-64
2022/08/16 11:43:36;;;;;;;10.93;9.20;;;25.30;64.40;;;;;;5092006;28;20072;-65
2022/08/16 11:46:04;;;;;;;10.05;8.75;;;25.30;64.40;;;;;;5091515;28;20067;-64
2022/08/16 11:48:32;;;;;;;9.65;8.65;;;25.30;64.40;;;;;;5091890;28;20491;-64
2022/08/16 11:50:58;;;;;;;9.57;8.48;;;25.30;64.40;;;;;;5090931;28;20083;-64
2022/08/16 11:53:23;;;;;;;13.15;8.93;;;25.30;64.40;;;;;;5090961;28;20087;-64
2022/08/16 11:55:51;;;;;;;11.77;8.90;;;25.30;64.30;;;;;;5092419;28;20043;-62
2022/08/16 11:58:17;;;;;;;11.73;9.05;;;25.30;64.40;;;;;;5091802;28;20058;-64
2022/08/16 12:00:43;;;;;;;12.48;8.68;;;25.30;64.30;;;;;;5091003;28;20475;-64
2022/08/16 12:03:09;;;;;;;10.98;8.27;;;25.30;64.30;;;;;;5091618;28;20495;-65
2022/08/16 12:05:35;;;;;;;12.05;8.77;;;25.30;64.30;;;;;;5092251;28;20118;-64
2022/08/16 12:08:03;;;;;;;9.90;8.75;;;25.30;64.30;;;;;;5091333;28;20051;-64
2022/08/16 12:10:28;;;;;;;11.10;8.50;;;25.30;64.30;;;;;;5092306;28;20051;-62
2022/08/16 12:12:54;;;;;;;13.38;8.57;;;25.30;64.30;;;;;;5091220;28;20040;-64
2022/08/16 12:15:20;;;;;;;9.18;7.95;;;25.30;64.20;;;;;;5091239;28;20560;-64
2022/08/16 12:17:46;;;;;;;10.55;8.25;;;25.30;64.20;;;;;;5092403;28;20051;-63
2022/08/16 12:20:17;;;;;;;9.30;7.30;;;25.30;64.10;;;;;;5089869;28;20040;-65
2022/08/16 12:22:43;;;;;;;12.10;8.13;;;25.40;64.20;;;;;;5095114;28;20113;-65
2022/08/16 12:25:11;;;;;;;12.30;7.97;;;25.40;64.10;;;;;;5096012;28;20128;-65
2022/08/16 12:27:37;;;;;;;;;;;25.40;63.90;;;;;;5095363;28;20036;-64
2022/08/16 12:30:03;;;;;;;9.85;7.93;;;25.30;63.70;;;;;;5094914;28;19927;-65
2022/08/16 12:32:29;;;;;;;9.73;8.20;;;25.40;63.80;;;;;;5095506;28;20093;-65